Chula, Missouri
Current Conditions -  °F | °C
As of 4:55 AM on Saturday 20 Dec 2014 (Local Time) from KIRK Reporting Station
Haze Haze  
Wind Chill: 26°   Ceiling: 200
Heat Index: 32°   Visibility: 1.2mi
Dew Point: 32°   Wind: 6mph
Humidity: 100%   Direction: 150°SSE
Pressure: 30.2"   Gusts: NA
Location:  39.92°N, 93.47°W
Report Text: KIRK 201055Z AUTO 15005KT 1 1/4SM BR OVC002 00/00 A3020 RMK AO2 SLP240 T00000000
Loading
Personal Weather Stations






























Interactive Weather Map New forecast layout! Learn more

10-Day Weather Forecast

Advertisements
Track Severe Weather on mobile